Latest Weather Observations for Noarlunga

IDS60801

Issued at 10:05 pm CDT Thursday 27 November 2014 (issued every 30 minutes, with the page automatically refreshed every 10 minutes)

About weather observations | Map of weather stations | Latest weather observations for SA | Other Formats
Station Details ID: 023885 Name: NOARLUNGA Lat: -35.16 Lon: 138.51 Height: 55.0 m
Data from the previous 72 hours. | See also: Recent months at Noarlunga
Date/Time
CDT
Temp
°C
App
Temp
°C
Dew
Point
Rel
Hum
%
Delta-T
°C
Wind Press
QNH
hPa
Press
MSL
hPa
Rain
since 9 am
mm
Dir
 
Spd
km/h
Gust
km/h
Spd
kts
Gust
kts
27/10:00pm 14.6 12.3 9.0 69 2.9 ESE 11 20 6 11 - - 0.0
27/09:30pm 15.0 11.5 8.9 67 3.1 SE 17 26 9 14 - - 0.0
27/09:00pm 15.3 11.4 8.5 64 3.5 SE 19 28 10 15 - - 0.0
27/08:30pm 15.9 12.6 7.9 59 4.0 SE 15 22 8 12 - - 0.0
27/08:00pm 17.1 12.7 7.2 52 5.0 SE 20 28 11 15 - - 0.0
27/07:30pm 18.6 14.8 7.4 48 5.7 SE 17 24 9 13 - - 0.0
27/07:00pm 19.9 15.1 7.3 44 6.4 SE 22 32 12 17 - - 0.0
27/06:30pm 20.8 15.5 6.7 40 7.2 SE 24 32 13 17 - - 0.0
27/06:00pm 21.4 15.3 6.5 38 7.6 SSE 28 37 15 20 - - 0.0
27/05:30pm 23.1 17.7 6.4 34 8.6 SSE 24 33 13 18 - - 0.0
27/05:00pm 23.7 18.0 6.5 33 8.9 SE 26 35 14 19 - - 0.0
27/04:30pm 24.1 17.8 5.9 31 9.3 SSE 28 35 15 19 - - 0.0
27/04:00pm 25.4 20.5 7.1 31 9.6 SSE 22 35 12 19 - - 0.0
27/03:30pm 25.2 20.3 6.9 31 9.6 SSE 22 28 12 15 - - 0.0
27/03:00pm 26.3 22.0 7.8 31 9.9 SSE 20 30 11 16 - - 0.0
27/02:30pm 26.5 22.7 7.5 30 10.1 SSE 17 28 9 15 - - 0.0
27/02:00pm 26.3 22.8 7.4 30 10.1 SSE 15 26 8 14 - - 0.0
27/01:30pm 25.6 22.3 8.1 33 9.4 SSE 15 24 8 13 - - 0.0
27/01:00pm 25.0 22.1 8.1 34 9.0 ESE 13 22 7 12 - - 0.0
27/12:30pm 24.4 21.7 8.8 37 8.4 E 13 20 7 11 - - 0.0
27/12:00pm 23.1 20.3 8.4 39 7.8 E 13 20 7 11 - - 0.0
27/11:30am 22.6 19.5 8.7 41 7.4 ESE 15 26 8 14 - - 0.0
27/11:00am 22.3 19.7 9.5 44 6.9 E 13 24 7 13 - - 0.0
27/10:30am 20.7 17.0 9.6 49 5.9 E 19 28 10 15 - - 0.0
27/10:00am 19.5 15.7 9.7 53 5.2 ESE 20 30 11 16 - - 0.0
27/09:30am 18.5 13.5 9.6 56 4.7 ESE 26 35 14 19 - - 0.0
27/09:00am 18.3 13.8 10.2 59 4.3 E 24 39 13 21 - - 0.0
27/08:30am 16.5 10.6 9.2 62 3.8 ESE 30 41 16 22 - - 0.0
27/08:00am 15.9 10.6 8.6 62 3.7 ESE 26 37 14 20 - - 0.0
27/07:30am 15.1 9.7 8.1 63 3.5 ESE 26 37 14 20 - - 0.0
27/07:00am 14.3 8.9 7.8 65 3.2 ESE 26 43 14 23 - - 0.0
27/06:30am 13.8 9.4 7.3 65 3.2 ESE 20 32 11 17 - - 0.0
27/06:00am 13.4 9.5 7.2 66 3.0 ESE 17 26 9 14 - - 0.0
27/05:30am 13.5 10.5 7.7 68 2.9 E 13 22 7 12 - - 0.0
27/05:00am 13.7 11.2 8.1 69 2.8 E 11 20 6 11 - - 0.0
27/04:30am 14.0 10.0 8.4 69 2.8 ESE 19 33 10 18 - - 0.0
27/04:00am 14.3 10.0 7.8 65 3.2 ESE 20 35 11 19 - - 0.0
27/03:30am 14.7 11.5 10.1 74 2.4 SE 17 26 9 14 - - 0.0
27/03:00am 15.0 11.0 10.4 74 2.4 SE 22 35 12 19 - - 0.0
27/02:30am 15.2 11.8 10.6 74 2.4 SE 19 28 10 15 - - 0.0
27/02:00am 15.3 12.4 11.1 76 2.2 SE 17 24 9 13 - - 0.0
27/01:30am 15.0 11.7 10.8 76 2.2 SE 19 28 10 15 - - 0.0
27/01:00am 14.9 11.9 10.7 76 2.2 SE 17 24 9 13 - - 0.0
27/12:30am 15.0 12.7 10.6 75 2.3 SE 13 22 7 12 - - 0.0
27/12:00am 15.1 11.7 10.5 74 2.4 SE 19 26 10 14 - - 0.0
 
Date/Time
CDT
Temp
°C
App
Temp
°C
Dew
Point
Rel
Hum
%
Delta-T
°C
Wind Press
QNH
hPa
Press
MSL
hPa
Rain
since 9 am
mm
Dir
 
Spd
km/h
Gust
km/h
Spd
kts
Gust
kts
26/11:30pm 15.3 11.3 10.5 73 2.5 SE 22 30 12 16 - - 0.0
26/11:00pm 15.7 12.7 10.7 72 2.7 SE 17 30 9 16 - - 0.0
26/10:30pm 15.4 11.9 10.2 71 2.7 SSE 19 30 10 16 - - 0.0
26/10:00pm 15.6 11.8 9.9 69 3.0 SE 20 35 11 19 - - 0.0
26/09:30pm 15.6 11.4 9.7 68 3.1 SSE 22 33 12 18 - - 0.0
26/09:00pm 15.8 11.6 9.9 68 3.1 SSE 22 32 12 17 - - 0.0
26/08:30pm 15.7 12.4 9.4 66 3.3 SSE 17 33 9 18 - - 0.0
26/08:00pm 16.1 11.7 9.1 63 3.6 SSE 22 39 12 21 - - 0.0
26/07:30pm 16.8 11.6 9.0 60 4.0 SSE 26 37 14 20 - - 0.0
26/07:00pm 18.0 13.9 8.8 55 4.8 SE 20 30 11 16 - - 0.0
26/06:30pm 18.3 12.7 8.6 53 5.0 SSE 28 37 15 20 - - 0.0
26/06:00pm 19.1 14.0 7.8 48 5.8 SSE 24 33 13 18 - - 0.0
26/05:30pm 20.1 15.1 8.1 46 6.2 SSE 24 33 13 18 - - 0.0
26/05:00pm 20.3 14.8 7.7 44 6.5 SSE 26 37 14 20 - - 0.0
26/04:30pm 21.1 16.0 7.7 42 6.9 SSE 24 33 13 18 - - 0.0
26/04:00pm 22.0 17.0 8.2 41 7.3 SSE 24 33 13 18 - - 0.0
26/03:30pm 22.0 16.6 7.8 40 7.4 SSE 26 37 14 20 - - 0.0
26/03:00pm 23.0 18.5 7.1 36 8.2 SSE 20 33 11 18 - - 0.0
26/02:30pm 23.6 19.3 6.8 34 8.7 SSE 19 28 10 15 - - 0.0
26/02:00pm 21.1 16.4 9.4 47 6.3 SW 24 33 13 18 - - 0.0
26/01:30pm 20.3 15.9 8.9 48 6.0 SW 22 35 12 19 - - 0.0
26/01:00pm 20.1 16.0 8.8 48 5.9 SW 20 32 11 17 - - 0.0
26/12:30pm 19.7 15.2 8.7 49 5.8 WSW 22 30 12 16 - - 0.0
26/12:00pm 19.9 15.8 7.9 46 6.2 W 19 28 10 15 - - 0.0
26/11:30am 19.6 16.5 7.4 45 6.2 SW 13 24 7 13 - - 0.0
26/11:00am 20.5 18.4 6.5 40 7.1 SSW 7 13 4 7 - - 0.0
26/10:30am 19.5 17.4 6.6 43 6.5 S 7 15 4 8 - - 0.0
26/10:00am 19.1 16.1 6.2 43 6.4 SE 11 20 6 11 - - 0.0
26/09:30am 18.4 16.0 6.9 47 5.8 SSE 9 15 5 8 - - 0.0
26/09:00am 17.7 14.8 6.6 48 5.5 SSE 11 22 6 12 - - 0.0
26/08:30am 16.8 13.7 7.2 53 4.8 SE 13 19 7 10 - - 0.0
26/08:00am 15.9 14.0 7.7 58 4.1 SE 7 11 4 6 - - 0.0
26/07:30am 14.2 11.5 7.5 64 3.3 ESE 11 13 6 7 - - 0.0
26/07:00am 12.7 10.7 7.2 69 2.7 ESE 7 11 4 6 - - 0.0
26/06:30am 11.1 8.7 7.0 76 2.0 E 9 11 5 6 - - 0.0
26/06:00am 10.3 7.8 6.5 77 1.8 ESE 9 11 5 6 - - 0.0
26/05:30am 10.4 8.3 6.5 77 1.8 E 7 11 4 6 - - 0.0
26/05:00am 10.2 8.0 6.4 77 1.8 ESE 7 11 4 6 - - 0.0
26/04:30am 10.8 7.9 6.6 75 2.0 E 11 13 6 7 - - 0.0
26/04:00am 10.7 7.8 6.5 75 2.0 E 11 15 6 8 - - 0.0
26/03:30am 11.2 8.3 6.5 73 2.2 E 11 17 6 9 - - 0.0
26/03:00am 11.4 8.1 6.5 72 2.3 E 13 15 7 8 - - 0.0
26/02:30am 11.5 9.0 6.6 72 2.3 E 9 13 5 7 - - 0.0
26/02:00am 11.6 8.7 6.5 71 2.4 E 11 15 6 8 - - 0.0
26/01:30am 11.9 9.1 6.8 71 2.4 ESE 11 13 6 7 - - 0.0
26/01:00am 11.9 9.4 6.6 70 2.5 ESE 9 13 5 7 - - 0.0
26/12:30am 12.3 9.5 6.8 69 2.6 ESE 11 13 6 7 - - 0.0
26/12:00am 12.4 10.4 6.9 69 2.6 SE 7 11 4 6 - - 0.0
 
Date/Time
CDT
Temp
°C
App
Temp
°C
Dew
Point
Rel
Hum
%
Delta-T
°C
Wind Press
QNH
hPa
Press
MSL
hPa
Rain
since 9 am
mm
Dir
 
Spd
km/h
Gust
km/h
Spd
kts
Gust
kts
25/11:30pm 12.7 10.7 7.0 68 2.8 SE 7 11 4 6 - - 0.0
25/11:00pm 13.1 10.8 7.3 68 2.8 SE 9 15 5 8 - - 0.0
25/10:30pm 13.5 11.2 7.5 67 2.9 SE 9 15 5 8 - - 0.0
25/10:00pm 13.9 11.3 7.7 66 3.1 SE 11 15 6 8 - - 0.0
25/09:30pm 14.2 11.2 7.5 64 3.3 SE 13 17 7 9 - - 0.0
25/09:00pm 14.7 11.2 7.3 61 3.6 SE 15 19 8 10 - - 0.0
25/08:30pm 15.2 11.7 7.0 58 4.0 SSE 15 20 8 11 - - 0.0
25/08:00pm 16.2 12.6 6.9 54 4.6 S 15 20 8 11 - - 0.0
25/07:30pm 16.9 13.0 7.3 53 4.8 SSE 17 24 9 13 - - 0.0
25/07:00pm 18.4 15.0 7.8 50 5.4 SW 15 28 8 15 - - 0.0
25/06:30pm 18.3 14.5 7.7 50 5.4 SW 17 30 9 16 - - 0.0
25/06:00pm 19.2 15.1 6.3 43 6.4 SW 17 28 9 15 - - 0.0
25/05:30pm 19.2 15.0 5.6 41 6.7 WSW 17 26 9 14 - - 0.0
25/05:00pm 19.1 15.2 6.9 45 6.2 WSW 17 26 9 14 - - 0.0
25/04:30pm 19.5 15.5 6.6 43 6.5 WSW 17 26 9 14 - - 0.0
25/04:00pm 19.6 15.4 5.6 40 6.9 WSW 17 26 9 14 - - 0.0
25/03:30pm 20.0 15.9 4.5 36 7.5 WSW 15 24 8 13 - - 0.0
25/03:00pm 20.2 16.9 4.3 35 7.7 W 11 17 6 9 - - 0.0
25/02:30pm 19.4 15.6 5.8 41 6.7 WSW 15 24 8 13 - - 0.0
25/02:00pm 18.9 15.2 6.4 44 6.2 W 15 24 8 13 - - 0.0
25/01:30pm 19.3 15.8 5.4 40 6.8 W 13 20 7 11 - - 0.0
25/01:00pm 18.9 14.7 3.9 37 7.1 W 15 24 8 13 - - 0.0
25/12:30pm 19.5 15.6 3.6 35 7.5 W 13 22 7 12 - - 0.0
25/12:00pm 18.9 14.8 4.3 38 7.0 W 15 22 8 12 - - 0.0
25/11:30am 17.7 13.6 6.3 47 5.6 W 17 26 9 14 - - 0.0
25/11:00am 16.8 13.3 7.2 53 4.8 WSW 15 28 8 15 - - 0.0
25/10:30am 16.9 13.5 7.8 55 4.6 WSW 15 28 8 15 - - 0.0
25/10:00am 16.6 13.6 7.8 56 4.4 WSW 13 20 7 11 - - 0.0
25/09:30am 17.4 15.2 7.7 53 4.9 W 9 20 5 11 - - 0.0
25/09:00am 16.5 14.2 7.4 55 4.6 SW 9 13 5 7 - - 0.0
25/08:30am 16.4 13.9 6.5 52 4.9 SW 9 15 5 8 - - 0.0
25/08:00am 15.5 13.8 7.5 59 4.0 SSW 6 13 3 7 - - 0.0
25/07:30am 16.3 15.2 8.5 60 4.0 SE 4 7 2 4 - - 0.0
25/07:00am 14.3 13.3 8.7 69 2.8 ESE 4 4 2 2 - - 0.0
25/06:30am 12.1 10.8 7.8 75 2.1 SE 4 6 2 3 - - 0.0
25/06:00am 11.4 10.1 7.5 77 1.9 E 4 6 2 3 - - 0.0
25/05:30am 11.2 9.8 7.3 77 1.9 ESE 4 6 2 3 - - 0.0
25/05:00am 11.2 9.8 7.1 76 2.0 SSE 4 6 2 3 - - 0.0
25/04:30am 11.1 9.6 7.0 76 2.0 SE 4 6 2 3 - - 0.0
25/04:00am 11.4 10.3 6.9 74 2.1 SE 2 4 1 2 - - 0.0
25/03:30am 11.5 10.0 6.6 72 2.3 SE 4 6 2 3 - - 0.0
25/03:00am 11.8 10.2 6.5 70 2.5 ESE 4 6 2 3 - - 0.0
25/02:30am 12.0 10.1 6.7 70 2.5 SE 6 9 3 5 - - 0.0
25/02:00am 12.5 10.0 6.5 67 2.9 S 9 11 5 6 - - 0.0
25/01:30am 13.2 10.3 6.5 64 3.2 S 11 17 6 9 - - 0.0
25/01:00am 13.9 11.5 7.0 63 3.4 S 9 13 5 7 - - 0.0
25/12:30am 14.2 11.8 7.0 62 3.5 S 9 15 5 8 - - 0.0
25/12:00am 14.4 11.2 7.0 61 3.6 S 13 19 7 10 - - 0.0
 
Date/Time
CDT
Temp
°C
App
Temp
°C
Dew
Point
Rel
Hum
%
Delta-T
°C
Wind Press
QNH
hPa
Press
MSL
hPa
Rain
since 9 am
mm
Dir
 
Spd
km/h
Gust
km/h
Spd
kts
Gust
kts
24/11:30pm 13.6 10.7 6.5 62 3.4 S 11 17 6 9 - - 0.0
24/11:00pm 13.8 11.2 5.9 59 3.8 S 9 17 5 9 - - 0.0
24/10:30pm 14.0 10.6 5.9 58 3.9 S 13 20 7 11 - - 0.0

Other Formats:

Comma delimited format used in spreadsheet applications
http://www.bom.gov.au/fwo/IDS60801/IDS60801.94808.axf

JavaScript Object Notation format (JSON) in row-major order
http://www.bom.gov.au/fwo/IDS60801/IDS60801.94808.json